createdAt,value
2022-09-11T00:00:46.857Z,0
2022-09-11T00:01:50.701Z,0
2022-09-11T00:02:53.908Z,0
2022-09-11T00:03:57.217Z,0
2022-09-11T00:05:00.589Z,0
2022-09-11T00:06:03.554Z,0
2022-09-11T00:07:06.365Z,0
2022-09-11T00:08:09.158Z,0
2022-09-11T00:09:12.406Z,0
2022-09-11T00:10:14.989Z,0
2022-09-11T00:11:18.775Z,0
2022-09-11T00:12:22.047Z,0
2022-09-11T00:13:25.104Z,0
2022-09-11T00:14:27.553Z,0
2022-09-11T00:15:30.392Z,0
2022-09-11T00:16:32.369Z,0
2022-09-11T00:17:36.009Z,0
2022-09-11T00:18:38.720Z,0
2022-09-11T00:19:41.782Z,0
2022-09-11T00:20:44.915Z,0
2022-09-11T00:21:48.646Z,0
2022-09-11T00:22:52.017Z,0
2022-09-11T00:23:54.005Z,0
2022-09-11T00:24:56.529Z,0
2022-09-11T00:25:59.049Z,0
2022-09-11T00:27:02.910Z,0
2022-09-11T00:28:06.481Z,0
2022-09-11T00:29:09.084Z,0
2022-09-11T00:30:11.625Z,0
2022-09-11T00:31:14.382Z,0
2022-09-11T00:32:17.935Z,0
2022-09-11T00:33:20.438Z,0
2022-09-11T00:34:23.835Z,0
2022-09-11T00:35:26.695Z,0
2022-09-11T00:36:29.398Z,0
2022-09-11T00:37:32.433Z,0
2022-09-11T00:38:35.300Z,0
2022-09-11T00:39:38.779Z,0
2022-09-11T00:40:41.720Z,0
2022-09-11T00:41:44.230Z,0
2022-09-11T00:42:48.157Z,0
2022-09-11T00:43:52.180Z,0
2022-09-11T00:44:55.579Z,0
2022-09-11T00:45:58.990Z,0
2022-09-11T00:47:02.323Z,0
2022-09-11T00:48:04.945Z,0
2022-09-11T00:49:07.658Z,0
2022-09-11T00:50:10.807Z,0
2022-09-11T00:51:14.250Z,0
2022-09-11T00:52:17.164Z,0
2022-09-11T00:53:20.313Z,0
2022-09-11T00:54:23.187Z,0
2022-09-11T00:55:26.605Z,0
2022-09-11T00:56:29.831Z,0
2022-09-11T00:57:33.178Z,0
2022-09-11T00:58:36.538Z,0
2022-09-11T00:59:40.586Z,0
2022-09-11T01:00:43.948Z,0
2022-09-11T01:01:47.310Z,0
2022-09-11T01:02:50.308Z,0
2022-09-11T01:03:53.244Z,0
2022-09-11T01:04:56.103Z,0
2022-09-11T01:05:59.095Z,0
2022-09-11T01:07:01.807Z,0
2022-09-11T01:08:04.335Z,0
2022-09-11T01:09:07.317Z,0
2022-09-11T01:10:10.381Z,0
2022-09-11T01:11:13.555Z,0
2022-09-11T01:12:16.992Z,0
2022-09-11T01:13:19.425Z,0
2022-09-11T01:14:23.331Z,0
2022-09-11T01:15:26.799Z,0
2022-09-11T01:16:30.115Z,0
2022-09-11T01:17:33.682Z,0
2022-09-11T01:18:36.193Z,0
2022-09-11T01:19:39.342Z,0
2022-09-11T01:20:42.234Z,0
2022-09-11T01:21:44.469Z,0
2022-09-11T01:22:46.794Z,0
2022-09-11T01:23:49.310Z,0
2022-09-11T01:24:52.283Z,0
2022-09-11T01:25:55.428Z,0
2022-09-11T01:26:58.214Z,0
2022-09-11T01:28:00.520Z,0
2022-09-11T01:29:03.942Z,0
2022-09-11T01:30:11.442Z,0
2022-09-11T01:31:15.493Z,0
2022-09-11T01:32:18.544Z,0
2022-09-11T01:33:21.994Z,0
2022-09-11T01:34:25.454Z,0
2022-09-11T01:35:28.343Z,0
2022-09-11T01:36:30.574Z,0
2022-09-11T01:37:33.751Z,0
2022-09-11T01:38:37.121Z,0
2022-09-11T01:39:39.964Z,0
2022-09-11T01:40:43.633Z,0
2022-09-11T01:41:46.706Z,0
2022-09-11T01:42:49.638Z,0
2022-09-11T01:43:52.517Z,0
2022-09-11T01:44:55.587Z,0
2022-09-11T01:45:59.725Z,0
2022-09-11T01:47:02.967Z,0
2022-09-11T01:48:06.033Z,0
2022-09-11T01:49:08.936Z,0
2022-09-11T01:50:12.260Z,0
2022-09-11T01:51:15.128Z,0
2022-09-11T01:52:17.278Z,0
2022-09-11T01:53:20.723Z,0
2022-09-11T01:54:23.782Z,0
2022-09-11T01:55:26.572Z,0
2022-09-11T01:56:29.989Z,0
2022-09-11T01:57:33.102Z,0
2022-09-11T01:58:36.262Z,0
2022-09-11T01:59:39.753Z,0
2022-09-11T02:00:42.500Z,0
2022-09-11T02:01:46.298Z,0
2022-09-11T02:02:49.663Z,0
2022-09-11T02:03:52.473Z,0
2022-09-11T02:04:55.626Z,0
2022-09-11T02:05:58.691Z,0
2022-09-11T02:07:01.778Z,0
2022-09-11T02:08:04.568Z,0
2022-09-11T02:09:07.640Z,0
2022-09-11T02:10:10.985Z,0
2022-09-11T02:11:13.515Z,0
2022-09-11T02:12:15.823Z,0
2022-09-11T02:13:18.618Z,0
2022-09-11T02:14:21.768Z,0
2022-09-11T02:15:24.642Z,0
2022-09-11T02:16:27.662Z,0
2022-09-11T02:17:32.213Z,0
2022-09-11T02:18:35.652Z,0
2022-09-11T02:19:38.740Z,0
2022-09-11T02:20:41.536Z,0
2022-09-11T02:21:44.247Z,0
2022-09-11T02:22:47.197Z,0
2022-09-11T02:23:50.542Z,0
2022-09-11T02:24:53.364Z,0
2022-09-11T02:25:56.528Z,0
2022-09-11T02:27:00.145Z,0
2022-09-11T02:28:03.918Z,0
2022-09-11T02:29:06.639Z,0
2022-09-11T02:30:09.156Z,0
2022-09-11T02:31:12.596Z,0
2022-09-11T02:32:15.406Z,0
2022-09-11T02:33:19.294Z,0
2022-09-11T02:34:22.389Z,0
2022-09-11T02:35:25.473Z,0
2022-09-11T02:36:28.065Z,0
2022-09-11T02:37:30.944Z,0
2022-09-11T02:38:33.823Z,0
2022-09-11T02:39:36.965Z,0
2022-09-11T02:40:40.682Z,0
2022-09-11T02:41:43.208Z,0
2022-09-11T02:42:46.414Z,0
2022-09-11T02:43:49.844Z,0
2022-09-11T02:44:52.283Z,0
2022-09-11T02:45:54.868Z,0
2022-09-11T02:46:57.761Z,0
2022-09-11T02:48:00.892Z,0
2022-09-11T02:49:04.421Z,0
2022-09-11T02:50:07.856Z,0
2022-09-11T02:51:11.121Z,0
2022-09-11T02:52:14.201Z,0
2022-09-11T02:53:16.795Z,0
2022-09-11T02:54:19.947Z,0
2022-09-11T02:55:22.275Z,0
2022-09-11T02:56:25.146Z,0
2022-09-11T02:57:28.319Z,0
2022-09-11T02:58:30.991Z,0
2022-09-11T02:59:33.707Z,0
2022-09-11T03:00:36.793Z,0
2022-09-11T03:01:39.780Z,0
2022-09-11T03:02:42.527Z,0
2022-09-11T03:03:46.290Z,0
2022-09-11T03:04:50.793Z,0
2022-09-11T03:05:53.843Z,0
2022-09-11T03:06:57.205Z,0
2022-09-11T03:08:00.378Z,0
2022-09-11T03:09:03.346Z,0
2022-09-11T03:10:05.846Z,0
2022-09-11T03:11:08.816Z,0
2022-09-11T03:12:12.183Z,0
2022-09-11T03:13:15.320Z,0
2022-09-11T03:14:17.834Z,0
2022-09-11T03:15:20.557Z,0
2022-09-11T03:16:23.252Z,0
2022-09-11T03:17:26.227Z,0
2022-09-11T03:18:29.302Z,0
2022-09-11T03:19:32.090Z,0
2022-09-11T03:20:35.985Z,0
2022-09-11T03:21:39.099Z,0
2022-09-11T03:22:41.881Z,0
2022-09-11T03:23:44.756Z,0
2022-09-11T03:24:47.008Z,0
2022-09-11T03:25:49.325Z,0
2022-09-11T03:26:52.495Z,0
2022-09-11T03:27:55.087Z,0
2022-09-11T03:28:57.955Z,0
2022-09-11T03:30:00.743Z,0
2022-09-11T03:31:04.269Z,0
2022-09-11T03:32:07.277Z,0
2022-09-11T03:33:10.071Z,0
2022-09-11T03:34:13.142Z,0
2022-09-11T03:35:15.735Z,0
2022-09-11T03:36:19.253Z,0
2022-09-11T03:37:22.075Z,0
2022-09-11T03:38:25.614Z,0
2022-09-11T03:39:28.881Z,0
2022-09-11T03:40:31.945Z,0
2022-09-11T03:41:35.645Z,0
2022-09-11T03:42:38.512Z,0
2022-09-11T03:43:41.500Z,0
2022-09-11T03:44:45.481Z,0
2022-09-11T03:45:48.773Z,0
2022-09-11T03:46:51.574Z,0
2022-09-11T03:47:55.364Z,0
2022-09-11T03:48:58.240Z,0
2022-09-11T03:50:00.820Z,0
2022-09-11T03:51:04.266Z,0
2022-09-11T03:52:07.837Z,0
2022-09-11T03:53:11.670Z,0
2022-09-11T03:54:14.739Z,0
2022-09-11T03:55:17.512Z,0
2022-09-11T03:56:21.281Z,0
2022-09-11T03:57:24.068Z,0
2022-09-11T03:58:26.781Z,0
2022-09-11T03:59:29.643Z,0
2022-09-11T04:00:32.520Z,0
2022-09-11T04:01:35.592Z,0
2022-09-11T04:02:37.916Z,0
2022-09-11T04:03:40.716Z,0
2022-09-11T04:04:44.122Z,0
2022-09-11T04:05:47.200Z,0
2022-09-11T04:06:49.907Z,0
2022-09-11T04:07:53.185Z,0
2022-09-11T04:08:56.016Z,0
2022-09-11T04:09:58.911Z,4
2022-09-11T04:11:02.053Z,4
2022-09-11T04:12:05.404Z,4
2022-09-11T04:13:08.199Z,4
2022-09-11T04:14:10.710Z,8
2022-09-11T04:15:14.203Z,4
2022-09-11T04:16:17.614Z,8
2022-09-11T04:17:21.106Z,8
2022-09-11T04:18:23.811Z,8
2022-09-11T04:19:27.146Z,8
2022-09-11T04:20:30.091Z,12
2022-09-11T04:21:32.876Z,20
2022-09-11T04:22:34.839Z,20
2022-09-11T04:23:39.013Z,24
2022-09-11T04:24:42.799Z,28
2022-09-11T04:25:45.858Z,32
2022-09-11T04:26:49.005Z,36
2022-09-11T04:27:51.994Z,44
2022-09-11T04:28:55.155Z,44
2022-09-11T04:29:57.957Z,56
2022-09-11T04:31:01.130Z,60
2022-09-11T04:32:04.327Z,64
2022-09-11T04:33:07.552Z,76
2022-09-11T04:34:10.279Z,84
2022-09-11T04:35:13.404Z,104
2022-09-11T04:36:16.542Z,120
2022-09-11T04:37:19.692Z,132
2022-09-11T04:38:22.664Z,128
2022-09-11T04:39:26.767Z,148
2022-09-11T04:40:30.122Z,168
2022-09-11T04:41:34.137Z,184
2022-09-11T04:42:36.729Z,196
2022-09-11T04:43:40.573Z,224
2022-09-11T04:44:44.286Z,244
2022-09-11T04:45:46.894Z,244
2022-09-11T04:46:50.530Z,264
2022-09-11T04:47:52.771Z,296
2022-09-11T04:48:55.656Z,300
2022-09-11T04:49:58.643Z,296
2022-09-11T04:51:01.246Z,348
2022-09-11T04:52:04.396Z,392
2022-09-11T04:53:07.284Z,460
2022-09-11T04:54:10.693Z,532
2022-09-11T04:55:14.595Z,564
2022-09-11T04:56:18.343Z,576
2022-09-11T04:57:21.214Z,604
2022-09-11T04:58:23.444Z,636
2022-09-11T04:59:26.340Z,596
2022-09-11T05:00:28.793Z,536
2022-09-11T05:01:31.927Z,540
2022-09-11T05:02:34.717Z,604
2022-09-11T05:03:37.887Z,708
2022-09-11T05:04:41.685Z,788
2022-09-11T05:05:45.217Z,840
2022-09-11T05:06:48.306Z,928
2022-09-11T05:07:51.108Z,912
2022-09-11T05:08:54.169Z,860
2022-09-11T05:09:57.271Z,968
2022-09-11T05:11:01.192Z,1108
2022-09-11T05:12:04.582Z,1184
2022-09-11T05:13:07.737Z,1244
2022-09-11T05:14:10.810Z,1240
2022-09-11T05:15:13.998Z,1124
2022-09-11T05:16:16.078Z,964
2022-09-11T05:17:19.638Z,924
2022-09-11T05:18:22.416Z,1092
2022-09-11T05:19:25.154Z,1204
2022-09-11T05:20:27.970Z,1288
2022-09-11T05:21:31.062Z,1404
2022-09-11T05:22:33.861Z,1576
2022-09-11T05:23:37.078Z,1688
2022-09-11T05:24:40.646Z,1620
2022-09-11T05:25:43.436Z,1476
2022-09-11T05:26:47.534Z,1384
2022-09-11T05:27:50.339Z,1100
2022-09-11T05:28:53.405Z,944
2022-09-11T05:29:56.116Z,936
2022-09-11T05:30:59.051Z,904
2022-09-11T05:32:02.218Z,736
2022-09-11T05:33:04.809Z,756
2022-09-11T05:34:07.956Z,912
2022-09-11T05:35:10.830Z,1228
2022-09-11T05:36:14.029Z,1440
2022-09-11T05:37:17.451Z,1656
2022-09-11T05:38:20.696Z,1992
2022-09-11T05:39:24.013Z,2108
2022-09-11T05:40:26.943Z,1764
2022-09-11T05:41:29.817Z,1428
2022-09-11T05:42:33.920Z,1456
2022-09-11T05:43:37.016Z,1500
2022-09-11T05:44:40.345Z,1284
2022-09-11T05:45:43.543Z,1012
2022-09-11T05:46:47.847Z,1068
2022-09-11T05:47:53.128Z,1460
2022-09-11T05:48:58.822Z,1936
2022-09-11T05:50:01.264Z,2108
2022-09-11T05:51:04.181Z,2260
2022-09-11T05:52:07.857Z,2212
2022-09-11T05:53:10.777Z,1648
2022-09-11T05:54:14.124Z,1536
2022-09-11T05:55:16.444Z,1740
2022-09-11T05:56:19.512Z,1840
2022-09-11T05:57:22.927Z,2232
2022-09-11T05:58:26.737Z,2480
2022-09-11T05:59:29.937Z,2712
2022-09-11T06:00:32.718Z,2088
2022-09-11T06:01:35.626Z,1760
2022-09-11T06:02:38.771Z,1744
2022-09-11T06:03:42.273Z,2032
2022-09-11T06:04:45.637Z,2156
2022-09-11T06:05:47.937Z,2128
2022-09-11T06:06:51.119Z,2052
2022-09-11T06:07:54.320Z,2052
2022-09-11T06:08:57.776Z,1908
2022-09-11T06:10:03.069Z,2152
2022-09-11T06:11:06.283Z,2152
2022-09-11T06:12:09.210Z,2188
2022-09-11T06:13:12.359Z,2444
2022-09-11T06:14:15.931Z,2704
2022-09-11T06:15:36.478Z,2804
2022-09-11T06:16:49.940Z,3924
2022-09-11T06:17:52.862Z,3576
2022-09-11T06:18:56.272Z,3628
2022-09-11T06:19:59.222Z,3752
2022-09-11T06:21:01.870Z,3444
2022-09-11T06:22:04.752Z,3092
2022-09-11T06:23:09.318Z,3264
2022-09-11T06:24:12.537Z,2676
2022-09-11T06:25:15.231Z,2244
2022-09-11T06:26:18.220Z,1732
2022-09-11T06:27:20.818Z,1528
2022-09-11T06:28:23.971Z,1932
2022-09-11T06:29:27.782Z,2732
2022-09-11T06:30:31.263Z,2948
2022-09-11T06:31:34.912Z,3224
2022-09-11T06:32:37.317Z,3788
2022-09-11T06:33:40.319Z,4116
2022-09-11T06:34:43.699Z,4948
2022-09-11T06:35:45.914Z,4680
2022-09-11T06:36:52.029Z,3536
2022-09-11T06:37:54.607Z,2828
2022-09-11T06:38:57.117Z,2296
2022-09-11T06:39:59.963Z,2448
2022-09-11T06:41:03.050Z,2788
2022-09-11T06:42:06.418Z,2712
2022-09-11T06:43:10.129Z,2932
2022-09-11T06:44:13.468Z,2884
2022-09-11T06:45:17.381Z,2676
2022-09-11T06:46:20.861Z,2772
2022-09-11T06:47:23.713Z,2932
2022-09-11T06:48:27.479Z,2984
2022-09-11T06:49:30.823Z,4232
2022-09-11T06:50:36.878Z,5676
2022-09-11T06:51:39.533Z,7092
2022-09-11T06:52:42.682Z,9324
2022-09-11T06:53:45.825Z,10756
2022-09-11T06:54:48.348Z,10892
2022-09-11T06:55:51.573Z,8868
2022-09-11T06:56:54.651Z,10312
2022-09-11T06:57:58.149Z,14216
2022-09-11T06:59:00.865Z,16880
2022-09-11T07:00:03.123Z,13920
2022-09-11T07:01:07.296Z,8736
2022-09-11T07:02:11.434Z,7136
2022-09-11T07:03:14.842Z,6140
2022-09-11T07:04:18.202Z,5408
2022-09-11T07:05:21.097Z,5200
2022-09-11T07:06:24.817Z,4152
2022-09-11T07:07:28.075Z,4648
2022-09-11T07:08:30.983Z,4552
2022-09-11T07:09:33.859Z,4680
2022-09-11T07:10:36.930Z,5608
2022-09-11T07:11:39.635Z,6376
2022-09-11T07:12:42.791Z,6320
2022-09-11T07:13:46.242Z,6616
2022-09-11T07:14:49.049Z,7340
2022-09-11T07:15:51.998Z,7400
2022-09-11T07:16:55.580Z,8284
2022-09-11T07:17:58.856Z,8704
2022-09-11T07:19:01.571Z,8936
2022-09-11T07:20:04.725Z,9204
2022-09-11T07:21:08.370Z,9588
2022-09-11T07:22:11.825Z,9612
2022-09-11T07:23:15.057Z,9676
2022-09-11T07:24:17.932Z,9612
2022-09-11T07:25:20.803Z,8976
2022-09-11T07:26:23.955Z,9392
2022-09-11T07:27:26.757Z,9272
2022-09-11T07:28:30.504Z,9144
2022-09-11T07:29:33.869Z,10944
2022-09-11T07:30:36.543Z,12968
2022-09-11T07:31:40.049Z,15072
2022-09-11T07:32:43.618Z,17728
2022-09-11T07:33:46.726Z,20224
2022-09-11T07:34:49.603Z,15276
2022-09-11T07:35:52.681Z,13164
2022-09-11T07:36:55.200Z,10864
2022-09-11T07:37:58.570Z,9696
2022-09-11T07:39:02.026Z,11060
2022-09-11T07:40:05.569Z,11140
2022-09-11T07:41:08.406Z,12512
2022-09-11T07:42:10.879Z,13256
2022-09-11T07:43:13.776Z,15412
2022-09-11T07:44:17.222Z,16280
2022-09-11T07:45:22.672Z,16992
2022-09-11T07:46:25.948Z,19936
2022-09-11T07:47:29.394Z,58976
2022-09-11T07:48:33.313Z,50848
2022-09-11T07:49:36.476Z,28896
2022-09-11T07:50:39.341Z,31264
2022-09-11T07:51:42.205Z,27104
2022-09-11T07:52:45.306Z,22976
2022-09-11T07:53:48.442Z,15964
2022-09-11T07:54:51.299Z,13792
2022-09-11T07:55:54.370Z,12056
2022-09-11T07:56:57.251Z,8652
2022-09-11T07:58:00.628Z,6488
2022-09-11T07:59:03.565Z,8304
2022-09-11T08:00:06.722Z,10828
2022-09-11T08:01:09.765Z,10444
2022-09-11T08:02:12.625Z,8788
2022-09-11T08:03:15.493Z,8372
2022-09-11T08:04:19.582Z,10384
2022-09-11T08:05:22.447Z,12788
2022-09-11T08:06:25.878Z,52608
2022-09-11T08:07:28.959Z,18464
2022-09-11T08:08:32.392Z,15704
2022-09-11T08:09:35.180Z,12368
2022-09-11T08:10:37.791Z,12176
2022-09-11T08:11:40.886Z,11748
2022-09-11T08:12:43.962Z,11152
2022-09-11T08:13:46.750Z,11980
2022-09-11T08:14:50.091Z,15716
2022-09-11T08:15:52.793Z,20000
2022-09-11T08:16:55.947Z,23776
2022-09-11T08:17:58.668Z,25056
2022-09-11T08:19:01.518Z,24192
2022-09-11T08:20:05.351Z,22688
2022-09-11T08:21:12.169Z,22624
2022-09-11T08:22:15.760Z,17932
2022-09-11T08:23:19.224Z,32768
2022-09-11T08:24:22.678Z,12500
2022-09-11T08:25:26.403Z,10152
2022-09-11T08:26:29.746Z,8768
2022-09-11T08:27:33.119Z,8896
2022-09-11T08:28:36.890Z,10040
2022-09-11T08:29:39.771Z,11040
2022-09-11T08:30:42.653Z,11300
2022-09-11T08:31:46.094Z,17392
2022-09-11T08:32:48.880Z,43552
2022-09-11T08:33:51.866Z,23872
2022-09-11T08:34:55.315Z,13488
2022-09-11T08:35:59.487Z,14600
2022-09-11T08:37:02.685Z,13756
2022-09-11T08:38:05.544Z,11700
2022-09-11T08:39:08.694Z,10988
2022-09-11T08:40:11.717Z,13652
2022-09-11T08:41:15.832Z,36576
2022-09-11T08:42:18.899Z,87200
2022-09-11T08:43:21.768Z,103232
2022-09-11T08:44:24.506Z,88416
2022-09-11T08:45:27.671Z,109024
2022-09-11T08:46:30.363Z,104960
2022-09-11T08:47:33.441Z,108096
2022-09-11T08:48:36.549Z,110880
2022-09-11T08:49:40.268Z,113216
2022-09-11T08:50:43.065Z,116832
2022-09-11T08:51:46.848Z,115648
2022-09-11T08:52:49.945Z,110240
2022-09-11T08:53:52.809Z,103040
2022-09-11T08:54:55.582Z,109184
2022-09-11T08:55:59.336Z,110080
2022-09-11T08:57:02.399Z,112960
2022-09-11T08:58:05.189Z,112416
2022-09-11T08:59:08.642Z,112640
2022-09-11T09:00:10.522Z,113888
2022-09-11T09:01:14.345Z,116064
2022-09-11T09:02:17.232Z,116288
2022-09-11T09:03:20.613Z,39744
2022-09-11T09:04:23.838Z,118688
2022-09-11T09:05:27.253Z,123456
2022-09-11T09:06:29.771Z,63424
2022-09-11T09:07:33.389Z,58752
2022-09-11T09:08:36.214Z,132192
2022-09-11T09:09:38.458Z,86176
2022-09-11T09:10:40.493Z,41952
2022-09-11T09:11:43.480Z,43712
2022-09-11T09:12:46.622Z,74912
2022-09-11T09:13:50.347Z,45824
2022-09-11T09:14:53.148Z,40096
2022-09-11T09:15:56.281Z,38656
2022-09-11T09:16:59.325Z,47552
2022-09-11T09:18:02.118Z,124640
2022-09-11T09:19:05.292Z,90496
2022-09-11T09:20:08.721Z,90784
2022-09-11T09:21:11.428Z,42400
2022-09-11T09:22:13.949Z,93984
2022-09-11T09:23:18.041Z,46144
2022-09-11T09:24:21.838Z,42400
2022-09-11T09:25:24.907Z,36896
2022-09-11T09:26:28.267Z,31648
2022-09-11T09:27:31.148Z,28512
2022-09-11T09:28:34.507Z,25312
2022-09-11T09:29:36.941Z,22080
2022-09-11T09:30:40.209Z,19616
2022-09-11T09:31:42.721Z,17636
2022-09-11T09:32:45.990Z,16028
2022-09-11T09:33:48.776Z,16188
2022-09-11T09:34:51.362Z,16728
2022-09-11T09:35:54.708Z,14096
2022-09-11T09:36:58.231Z,11916
2022-09-11T09:38:00.832Z,10660
2022-09-11T09:39:04.353Z,10088
2022-09-11T09:40:07.952Z,10172
2022-09-11T09:41:11.288Z,10996
2022-09-11T09:42:13.701Z,12180
2022-09-11T09:43:17.322Z,12856
2022-09-11T09:44:20.130Z,12848
2022-09-11T09:45:23.469Z,11920
2022-09-11T09:46:26.805Z,10988
2022-09-11T09:47:30.550Z,9852
2022-09-11T09:48:34.251Z,8820
2022-09-11T09:49:36.692Z,7968
2022-09-11T09:50:39.679Z,8132
2022-09-11T09:51:42.559Z,9520
2022-09-11T09:52:45.354Z,11592
2022-09-11T09:53:48.220Z,13820
2022-09-11T09:54:52.327Z,16232
2022-09-11T09:55:55.784Z,19488
2022-09-11T09:56:58.942Z,26752
2022-09-11T09:58:01.934Z,50432
2022-09-11T09:59:04.803Z,24352
2022-09-11T10:00:07.963Z,22048
2022-09-11T10:01:13.514Z,21504
2022-09-11T10:02:21.673Z,18752
2022-09-11T10:03:25.557Z,15520
2022-09-11T10:04:28.778Z,11484
2022-09-11T10:05:32.101Z,9620
2022-09-11T10:06:35.443Z,8588
2022-09-11T10:07:38.891Z,7932
2022-09-11T10:08:42.133Z,7844
2022-09-11T10:09:46.070Z,8740
2022-09-11T10:10:50.163Z,10380
2022-09-11T10:11:53.524Z,12252
2022-09-11T10:13:17.472Z,13792
2022-09-11T10:14:47.144Z,15468
2022-09-11T10:15:55.137Z,16152
2022-09-11T10:16:58.573Z,16448
2022-09-11T10:18:01.248Z,16840
2022-09-11T10:19:03.987Z,17280
2022-09-11T10:20:07.693Z,16884
2022-09-11T10:21:10.562Z,17036
2022-09-11T10:22:13.392Z,17004
2022-09-11T10:23:16.373Z,16788
2022-09-11T10:24:19.374Z,16732
2022-09-11T10:25:22.450Z,16732
2022-09-11T10:26:26.581Z,15552
2022-09-11T10:27:29.623Z,14768
2022-09-11T10:28:32.852Z,14472
2022-09-11T10:29:36.155Z,14364
2022-09-11T10:30:39.381Z,14472
2022-09-11T10:31:42.270Z,14612
2022-09-11T10:32:45.982Z,15548
2022-09-11T10:33:48.798Z,16524
2022-09-11T10:34:51.505Z,17528
2022-09-11T10:35:53.754Z,19232
2022-09-11T10:36:56.544Z,20800
2022-09-11T10:37:59.061Z,21984
2022-09-11T10:39:02.130Z,23744
2022-09-11T10:40:05.472Z,23264
2022-09-11T10:41:08.685Z,23488
2022-09-11T10:42:12.776Z,24096
2022-09-11T10:43:16.844Z,25056
2022-09-11T10:44:20.194Z,26592
2022-09-11T10:45:23.270Z,31712
2022-09-11T10:46:26.436Z,42176
2022-09-11T10:47:29.303Z,50144
2022-09-11T10:48:31.890Z,38304
2022-09-11T10:49:34.153Z,27744
2022-09-11T10:50:37.229Z,24832
2022-09-11T10:51:42.158Z,23936
2022-09-11T10:52:50.209Z,24672
2022-09-11T10:53:53.659Z,28032
2022-09-11T10:54:57.008Z,33728
2022-09-11T10:56:00.764Z,24352
2022-09-11T10:57:03.572Z,21248
2022-09-11T10:58:07.139Z,19552
2022-09-11T10:59:10.083Z,18912
2022-09-11T11:00:13.639Z,18752
2022-09-11T11:01:17.275Z,19040
2022-09-11T11:02:20.860Z,19808
2022-09-11T11:03:24.370Z,20224
2022-09-11T11:04:27.910Z,19008
2022-09-11T11:05:30.909Z,16040
2022-09-11T11:06:33.721Z,13688
2022-09-11T11:07:36.824Z,12380
2022-09-11T11:08:39.904Z,12156
2022-09-11T11:09:43.351Z,12812
2022-09-11T11:10:46.250Z,15400
2022-09-11T11:11:49.416Z,18688
2022-09-11T11:12:52.581Z,20928
2022-09-11T11:13:56.450Z,22144
2022-09-11T11:14:59.893Z,22752
2022-09-11T11:16:02.840Z,22912
2022-09-11T11:17:06.421Z,22752
2022-09-11T11:18:09.796Z,24000
2022-09-11T11:19:11.954Z,24736
2022-09-11T11:20:15.123Z,26464
2022-09-11T11:21:17.790Z,27904
2022-09-11T11:22:20.945Z,29696
2022-09-11T11:23:23.458Z,31648
2022-09-11T11:24:26.078Z,32032
2022-09-11T11:25:29.415Z,32992
2022-09-11T11:26:32.201Z,39456
2022-09-11T11:27:35.183Z,54016
2022-09-11T11:28:37.967Z,41984
2022-09-11T11:29:42.066Z,33664
2022-09-11T11:30:45.526Z,26560
2022-09-11T11:31:48.837Z,24704
2022-09-11T11:32:52.370Z,26880
2022-09-11T11:33:55.989Z,66144
2022-09-11T11:34:59.340Z,27360
2022-09-11T11:36:02.287Z,27424
2022-09-11T11:37:05.754Z,28576
2022-09-11T11:38:08.906Z,31424
2022-09-11T11:39:12.257Z,35584
2022-09-11T11:40:14.962Z,35584
2022-09-11T11:41:17.897Z,34336
2022-09-11T11:42:20.502Z,34368
2022-09-11T11:43:23.210Z,35072
2022-09-11T11:44:26.293Z,34432
2022-09-11T11:45:30.132Z,29408
2022-09-11T11:46:33.417Z,30976
2022-09-11T11:47:36.217Z,31296
2022-09-11T11:48:39.683Z,31968
2022-09-11T11:49:42.469Z,29120
2022-09-11T11:50:45.635Z,30208
2022-09-11T11:51:48.507Z,30976
2022-09-11T11:52:51.655Z,28704
2022-09-11T11:53:54.726Z,27808
2022-09-11T11:54:57.601Z,27456
2022-09-11T11:56:00.588Z,25888
2022-09-11T11:57:03.838Z,24736
2022-09-11T11:58:06.232Z,23488
2022-09-11T11:59:09.955Z,22368
2022-09-11T12:00:13.171Z,21472
2022-09-11T12:01:17.281Z,18656
2022-09-11T12:02:20.453Z,17228
2022-09-11T12:03:23.886Z,16192
2022-09-11T12:04:27.446Z,15152
2022-09-11T12:05:30.621Z,14048
2022-09-11T12:06:33.780Z,12872
2022-09-11T12:07:36.833Z,12064
2022-09-11T12:08:40.004Z,11308
2022-09-11T12:09:44.076Z,10928
2022-09-11T12:10:47.157Z,11052
2022-09-11T12:11:49.403Z,11428
2022-09-11T12:12:52.477Z,11736
2022-09-11T12:13:54.996Z,11940
2022-09-11T12:14:57.787Z,11940
2022-09-11T12:16:00.983Z,11652
2022-09-11T12:17:05.209Z,11484
2022-09-11T12:18:08.405Z,11940
2022-09-11T12:19:11.394Z,12856
2022-09-11T12:20:13.989Z,14148
2022-09-11T12:21:17.095Z,15372
2022-09-11T12:22:20.470Z,15800
2022-09-11T12:23:22.985Z,16400
2022-09-11T12:24:25.782Z,16544
2022-09-11T12:25:28.569Z,16408
2022-09-11T12:26:32.103Z,15716
2022-09-11T12:27:34.900Z,15092
2022-09-11T12:28:38.155Z,14568
2022-09-11T12:29:41.404Z,13704
2022-09-11T12:30:44.310Z,12564
2022-09-11T12:31:47.112Z,11336
2022-09-11T12:32:50.740Z,10496
2022-09-11T12:33:54.134Z,10068
2022-09-11T12:34:57.222Z,9972
2022-09-11T12:36:00.041Z,9992
2022-09-11T12:37:02.286Z,10032
2022-09-11T12:38:05.700Z,10028
2022-09-11T12:39:08.514Z,9648
2022-09-11T12:40:11.923Z,9140
2022-09-11T12:41:14.983Z,8668
2022-09-11T12:42:17.802Z,8168
2022-09-11T12:43:20.492Z,7728
2022-09-11T12:44:23.360Z,7428
2022-09-11T12:45:26.513Z,7200
2022-09-11T12:46:29.300Z,7072
2022-09-11T12:47:32.451Z,7032
2022-09-11T12:48:36.345Z,7196
2022-09-11T12:49:39.910Z,7428
2022-09-11T12:50:43.327Z,7704
2022-09-11T12:51:46.201Z,8128
2022-09-11T12:52:49.549Z,8676
2022-09-11T12:53:52.334Z,9476
2022-09-11T12:54:55.399Z,10572
2022-09-11T12:55:57.843Z,11840
2022-09-11T12:57:00.774Z,13156
2022-09-11T12:58:04.230Z,14252
2022-09-11T12:59:06.470Z,14912
2022-09-11T13:00:09.646Z,14952
2022-09-11T13:01:12.461Z,14760
2022-09-11T13:02:15.094Z,14496
2022-09-11T13:03:18.615Z,14140
2022-09-11T13:04:22.708Z,13760
2022-09-11T13:05:26.381Z,13572
2022-09-11T13:06:29.176Z,13756
2022-09-11T13:07:31.772Z,14336
2022-09-11T13:08:35.435Z,15156
2022-09-11T13:09:38.582Z,16000
2022-09-11T13:10:41.443Z,17036
2022-09-11T13:11:45.340Z,18180
2022-09-11T13:12:48.587Z,19008
2022-09-11T13:13:51.011Z,20064
2022-09-11T13:14:54.108Z,20512
2022-09-11T13:15:57.240Z,20256
2022-09-11T13:17:00.274Z,20096
2022-09-11T13:18:03.141Z,20544
2022-09-11T13:19:06.498Z,20992
2022-09-11T13:20:10.145Z,21952
2022-09-11T13:21:14.212Z,22944
2022-09-11T13:22:16.449Z,24064
2022-09-11T13:23:19.418Z,23456
2022-09-11T13:24:22.571Z,24096
2022-09-11T13:25:25.915Z,23328
2022-09-11T13:26:29.096Z,27744
2022-09-11T13:27:32.156Z,57440
2022-09-11T13:28:34.752Z,67584
2022-09-11T13:29:37.549Z,42880
2022-09-11T13:30:40.716Z,24256
2022-09-11T13:31:43.522Z,27808
2022-09-11T13:32:46.870Z,32576
2022-09-11T13:33:50.131Z,27456
2022-09-11T13:34:52.925Z,25888
2022-09-11T13:35:56.852Z,24704
2022-09-11T13:36:59.985Z,23808
2022-09-11T13:38:03.997Z,23072
2022-09-11T13:39:06.723Z,21504
2022-09-11T13:40:10.470Z,22816
2022-09-11T13:41:13.932Z,25120
2022-09-11T13:42:17.356Z,25184
2022-09-11T13:43:20.224Z,27456
2022-09-11T13:44:23.678Z,27648
2022-09-11T13:45:26.901Z,25984
2022-09-11T13:46:29.673Z,24032
2022-09-11T13:47:32.485Z,22592
2022-09-11T13:48:35.623Z,19424
2022-09-11T13:49:38.970Z,16496
2022-09-11T13:50:41.749Z,15208
2022-09-11T13:51:45.564Z,14172
2022-09-11T13:52:49.219Z,13120
2022-09-11T13:53:51.544Z,13864
2022-09-11T13:54:54.654Z,13904
2022-09-11T13:55:58.013Z,14612
2022-09-11T13:57:00.311Z,16300
2022-09-11T13:58:03.939Z,17504
2022-09-11T13:59:06.370Z,15608
2022-09-11T14:00:08.890Z,14020
2022-09-11T14:01:12.052Z,13248
2022-09-11T14:02:15.152Z,12484
2022-09-11T14:03:18.545Z,11700
2022-09-11T14:04:21.151Z,11140
2022-09-11T14:05:24.586Z,10780
2022-09-11T14:06:27.535Z,10456
2022-09-11T14:07:31.080Z,10452
2022-09-11T14:08:34.730Z,11644
2022-09-11T14:09:38.537Z,12668
2022-09-11T14:10:41.046Z,11992
2022-09-11T14:11:43.942Z,10992
2022-09-11T14:12:47.366Z,10136
2022-09-11T14:13:50.515Z,9688
2022-09-11T14:14:53.482Z,9508
2022-09-11T14:15:56.983Z,8956
2022-09-11T14:17:00.448Z,8224